Terminal Aerodrome Forecast
Issued by NWS

Home | Current Version | Previous Version | Text Only | Print | Product List | Glossary On
Versions: 1 2 3 4 5 6 7 8 9 10 11 12 13 14 15 16 17
000
FTUS43 KSGF 272300
TAFJLN
TAF
KJLN 272320Z 2800/2824 21010G16KT P6SM BKN150
     FM280100 24008KT P6SM SCT050 BKN100
      TEMPO 2803/2807 5SM -TSRA BR BKN040CB
     FM280700 33010G17KT P6SM VCSH BKN040 OVC100
     FM281000 01007KT P6SM SCT250=

USA.gov is the U.S. government's official web portal to all federal, state and local government web resources and services.